sensor_id;sensor_type;location;lat;lon;timestamp;P1;durP1;ratioP1;P2;durP2;ratioP2
635;SDS011;302;50.206;8.196;2024-03-06T00:00:46;5.40;;;4.90;;
635;SDS011;302;50.206;8.196;2024-03-06T00:03:29;5.65;;;4.85;;
635;SDS011;302;50.206;8.196;2024-03-06T00:06:13;5.32;;;4.85;;
635;SDS011;302;50.206;8.196;2024-03-06T00:08:57;5.80;;;5.20;;
635;SDS011;302;50.206;8.196;2024-03-06T00:11:41;6.50;;;5.30;;
635;SDS011;302;50.206;8.196;2024-03-06T00:14:25;6.22;;;5.50;;
635;SDS011;302;50.206;8.196;2024-03-06T00:17:09;6.05;;;4.90;;
635;SDS011;302;50.206;8.196;2024-03-06T00:19:53;7.00;;;5.13;;
635;SDS011;302;50.206;8.196;2024-03-06T00:22:37;6.57;;;5.30;;
635;SDS011;302;50.206;8.196;2024-03-06T00:25:21;6.03;;;5.43;;
635;SDS011;302;50.206;8.196;2024-03-06T00:28:05;7.25;;;5.65;;
635;SDS011;302;50.206;8.196;2024-03-06T00:30:49;6.13;;;5.13;;
635;SDS011;302;50.206;8.196;2024-03-06T00:33:33;5.88;;;5.28;;
635;SDS011;302;50.206;8.196;2024-03-06T00:36:17;4.90;;;4.50;;
635;SDS011;302;50.206;8.196;2024-03-06T00:39:01;4.90;;;4.45;;
635;SDS011;302;50.206;8.196;2024-03-06T00:41:48;4.97;;;4.50;;
635;SDS011;302;50.206;8.196;2024-03-06T00:44:31;4.95;;;4.45;;
635;SDS011;302;50.206;8.196;2024-03-06T00:47:15;4.57;;;4.18;;
635;SDS011;302;50.206;8.196;2024-03-06T00:49:59;4.50;;;3.92;;
635;SDS011;302;50.206;8.196;2024-03-06T00:52:43;5.38;;;4.43;;
635;SDS011;302;50.206;8.196;2024-03-06T00:55:27;4.05;;;3.65;;
635;SDS011;302;50.206;8.196;2024-03-06T00:58:11;5.05;;;4.55;;
635;SDS011;302;50.206;8.196;2024-03-06T01:00:55;5.50;;;5.00;;
635;SDS011;302;50.206;8.196;2024-03-06T01:03:38;4.60;;;4.20;;
635;SDS011;302;50.206;8.196;2024-03-06T01:06:23;5.18;;;4.10;;
635;SDS011;302;50.206;8.196;2024-03-06T01:09:06;4.47;;;4.00;;
635;SDS011;302;50.206;8.196;2024-03-06T01:11:50;4.90;;;4.10;;
635;SDS011;302;50.206;8.196;2024-03-06T01:14:34;5.20;;;4.55;;
635;SDS011;302;50.206;8.196;2024-03-06T01:17:18;5.55;;;5.05;;
635;SDS011;302;50.206;8.196;2024-03-06T01:20:03;4.47;;;4.07;;
635;SDS011;302;50.206;8.196;2024-03-06T01:22:50;4.00;;;3.60;;
635;SDS011;302;50.206;8.196;2024-03-06T01:25:34;4.15;;;3.75;;
635;SDS011;302;50.206;8.196;2024-03-06T01:28:18;3.83;;;3.53;;
635;SDS011;302;50.206;8.196;2024-03-06T01:31:02;4.30;;;3.85;;
635;SDS011;302;50.206;8.196;2024-03-06T01:33:46;4.00;;;3.25;;
635;SDS011;302;50.206;8.196;2024-03-06T01:36:30;3.35;;;3.10;;
635;SDS011;302;50.206;8.196;2024-03-06T01:39:14;5.90;;;3.63;;
635;SDS011;302;50.206;8.196;2024-03-06T01:41:58;4.20;;;3.13;;
635;SDS011;302;50.206;8.196;2024-03-06T01:44:42;4.28;;;3.60;;
635;SDS011;302;50.206;8.196;2024-03-06T01:47:26;3.90;;;3.35;;
635;SDS011;302;50.206;8.196;2024-03-06T01:50:10;3.80;;;3.50;;
635;SDS011;302;50.206;8.196;2024-03-06T01:52:54;3.33;;;3.03;;
635;SDS011;302;50.206;8.196;2024-03-06T01:55:38;3.90;;;3.25;;
635;SDS011;302;50.206;8.196;2024-03-06T01:58:21;4.57;;;3.50;;
635;SDS011;302;50.206;8.196;2024-03-06T02:01:07;3.55;;;3.20;;
635;SDS011;302;50.206;8.196;2024-03-06T02:03:51;4.50;;;3.55;;
635;SDS011;302;50.206;8.196;2024-03-06T02:06:36;3.90;;;3.50;;
635;SDS011;302;50.206;8.196;2024-03-06T02:09:19;4.38;;;3.80;;
635;SDS011;302;50.206;8.196;2024-03-06T02:12:04;3.70;;;3.40;;
635;SDS011;302;50.206;8.196;2024-03-06T02:14:48;3.30;;;3.00;;
635;SDS011;302;50.206;8.196;2024-03-06T02:17:32;3.88;;;3.53;;
635;SDS011;302;50.206;8.196;2024-03-06T02:20:16;7.22;;;4.22;;
635;SDS011;302;50.206;8.196;2024-03-06T02:23:00;3.88;;;3.25;;
635;SDS011;302;50.206;8.196;2024-03-06T02:25:44;3.70;;;3.40;;
635;SDS011;302;50.206;8.196;2024-03-06T02:28:29;3.40;;;3.10;;
635;SDS011;302;50.206;8.196;2024-03-06T02:31:14;3.78;;;3.47;;
635;SDS011;302;50.206;8.196;2024-03-06T02:33:57;5.07;;;3.90;;
635;SDS011;302;50.206;8.196;2024-03-06T02:36:42;3.78;;;3.42;;
635;SDS011;302;50.206;8.196;2024-03-06T02:39:26;3.53;;;3.22;;
635;SDS011;302;50.206;8.196;2024-03-06T02:42:10;3.70;;;3.40;;
635;SDS011;302;50.206;8.196;2024-03-06T02:44:54;3.60;;;3.30;;
635;SDS011;302;50.206;8.196;2024-03-06T02:47:38;5.40;;;3.30;;
635;SDS011;302;50.206;8.196;2024-03-06T02:50:22;3.50;;;3.20;;
635;SDS011;302;50.206;8.196;2024-03-06T02:53:06;3.47;;;3.15;;
635;SDS011;302;50.206;8.196;2024-03-06T02:55:50;4.07;;;3.67;;
635;SDS011;302;50.206;8.196;2024-03-06T02:58:35;3.72;;;3.38;;
635;SDS011;302;50.206;8.196;2024-03-06T03:01:18;3.53;;;3.22;;
635;SDS011;302;50.206;8.196;2024-03-06T03:04:03;3.55;;;3.05;;
635;SDS011;302;50.206;8.196;2024-03-06T03:06:47;3.75;;;3.40;;
635;SDS011;302;50.206;8.196;2024-03-06T03:09:31;3.75;;;3.40;;
635;SDS011;302;50.206;8.196;2024-03-06T03:12:15;3.03;;;2.75;;
635;SDS011;302;50.206;8.196;2024-03-06T03:14:59;3.03;;;2.72;;
635;SDS011;302;50.206;8.196;2024-03-06T03:17:43;5.15;;;3.70;;
635;SDS011;302;50.206;8.196;2024-03-06T03:20:26;3.20;;;2.90;;
635;SDS011;302;50.206;8.196;2024-03-06T03:23:10;3.30;;;3.00;;
635;SDS011;302;50.206;8.196;2024-03-06T03:25:55;2.90;;;2.70;;
635;SDS011;302;50.206;8.196;2024-03-06T03:28:39;3.42;;;3.13;;
635;SDS011;302;50.206;8.196;2024-03-06T03:31:23;4.88;;;2.78;;
635;SDS011;302;50.206;8.196;2024-03-06T03:34:07;4.22;;;3.25;;
635;SDS011;302;50.206;8.196;2024-03-06T03:36:52;4.38;;;3.65;;
635;SDS011;302;50.206;8.196;2024-03-06T03:39:36;3.78;;;3.30;;
635;SDS011;302;50.206;8.196;2024-03-06T03:42:20;3.83;;;3.25;;
635;SDS011;302;50.206;8.196;2024-03-06T03:45:04;4.20;;;3.78;;
635;SDS011;302;50.206;8.196;2024-03-06T03:47:48;4.80;;;4.15;;
635;SDS011;302;50.206;8.196;2024-03-06T03:50:32;5.05;;;3.75;;
635;SDS011;302;50.206;8.196;2024-03-06T03:53:16;4.28;;;3.35;;
635;SDS011;302;50.206;8.196;2024-03-06T03:56:00;4.85;;;4.10;;
635;SDS011;302;50.206;8.196;2024-03-06T03:58:44;4.25;;;3.80;;
635;SDS011;302;50.206;8.196;2024-03-06T04:01:28;3.92;;;3.53;;
635;SDS011;302;50.206;8.196;2024-03-06T04:04:12;3.55;;;3.03;;
635;SDS011;302;50.206;8.196;2024-03-06T04:06:56;4.97;;;3.88;;
635;SDS011;302;50.206;8.196;2024-03-06T04:09:43;6.00;;;4.05;;
635;SDS011;302;50.206;8.196;2024-03-06T04:12:27;4.57;;;3.95;;
635;SDS011;302;50.206;8.196;2024-03-06T04:15:11;4.80;;;3.65;;
635;SDS011;302;50.206;8.196;2024-03-06T04:17:55;4.18;;;3.78;;
635;SDS011;302;50.206;8.196;2024-03-06T04:20:39;5.43;;;3.90;;
635;SDS011;302;50.206;8.196;2024-03-06T04:23:22;4.45;;;4.00;;
635;SDS011;302;50.206;8.196;2024-03-06T04:26:06;4.10;;;3.70;;
635;SDS011;302;50.206;8.196;2024-03-06T04:28:50;3.50;;;3.20;;
635;SDS011;302;50.206;8.196;2024-03-06T04:31:34;6.53;;;4.25;;
635;SDS011;302;50.206;8.196;2024-03-06T04:34:18;5.05;;;4.10;;
635;SDS011;302;50.206;8.196;2024-03-06T04:37:03;5.00;;;3.95;;
635;SDS011;302;50.206;8.196;2024-03-06T04:39:47;7.25;;;4.70;;
635;SDS011;302;50.206;8.196;2024-03-06T04:42:32;4.95;;;4.45;;
635;SDS011;302;50.206;8.196;2024-03-06T04:45:16;6.47;;;4.30;;
635;SDS011;302;50.206;8.196;2024-03-06T04:48:00;5.35;;;4.43;;
635;SDS011;302;50.206;8.196;2024-03-06T04:50:44;4.97;;;4.35;;
635;SDS011;302;50.206;8.196;2024-03-06T04:53:28;6.00;;;4.20;;
635;SDS011;302;50.206;8.196;2024-03-06T04:56:12;4.38;;;3.85;;
635;SDS011;302;50.206;8.196;2024-03-06T04:58:56;4.88;;;4.35;;
635;SDS011;302;50.206;8.196;2024-03-06T05:01:40;5.63;;;4.32;;
635;SDS011;302;50.206;8.196;2024-03-06T05:04:23;5.00;;;4.50;;
635;SDS011;302;50.206;8.196;2024-03-06T05:07:08;7.00;;;4.18;;
635;SDS011;302;50.206;8.196;2024-03-06T05:09:51;4.45;;;4.05;;
635;SDS011;302;50.206;8.196;2024-03-06T05:12:35;6.80;;;4.35;;
635;SDS011;302;50.206;8.196;2024-03-06T05:15:19;4.78;;;3.95;;
635;SDS011;302;50.206;8.196;2024-03-06T05:18:03;4.95;;;4.05;;
635;SDS011;302;50.206;8.196;2024-03-06T05:20:47;6.60;;;4.30;;
635;SDS011;302;50.206;8.196;2024-03-06T05:23:31;4.90;;;4.32;;
635;SDS011;302;50.206;8.196;2024-03-06T05:26:15;4.90;;;4.10;;
635;SDS011;302;50.206;8.196;2024-03-06T05:28:59;6.68;;;4.68;;
635;SDS011;302;50.206;8.196;2024-03-06T05:31:44;5.22;;;4.05;;
635;SDS011;302;50.206;8.196;2024-03-06T05:34:27;6.20;;;4.78;;
635;SDS011;302;50.206;8.196;2024-03-06T05:37:11;5.45;;;4.95;;
635;SDS011;302;50.206;8.196;2024-03-06T05:39:55;5.00;;;4.50;;
635;SDS011;302;50.206;8.196;2024-03-06T05:42:39;5.68;;;4.97;;
635;SDS011;302;50.206;8.196;2024-03-06T05:45:23;5.70;;;4.78;;
635;SDS011;302;50.206;8.196;2024-03-06T05:48:07;5.43;;;4.93;;
635;SDS011;302;50.206;8.196;2024-03-06T05:50:53;6.35;;;4.75;;
635;SDS011;302;50.206;8.196;2024-03-06T05:53:37;5.70;;;4.70;;
635;SDS011;302;50.206;8.196;2024-03-06T05:56:21;6.00;;;5.40;;
635;SDS011;302;50.206;8.196;2024-03-06T05:59:05;6.53;;;5.10;;
635;SDS011;302;50.206;8.196;2024-03-06T06:01:51;6.47;;;5.40;;
635;SDS011;302;50.206;8.196;2024-03-06T06:04:36;6.22;;;5.10;;
635;SDS011;302;50.206;8.196;2024-03-06T06:07:20;5.95;;;5.32;;
635;SDS011;302;50.206;8.196;2024-03-06T06:10:04;5.97;;;5.20;;
635;SDS011;302;50.206;8.196;2024-03-06T06:12:52;5.53;;;4.82;;
635;SDS011;302;50.206;8.196;2024-03-06T06:15:36;5.45;;;4.95;;
635;SDS011;302;50.206;8.196;2024-03-06T06:18:20;5.22;;;4.72;;
635;SDS011;302;50.206;8.196;2024-03-06T06:21:04;5.13;;;4.60;;
635;SDS011;302;50.206;8.196;2024-03-06T06:23:51;6.15;;;5.55;;
635;SDS011;302;50.206;8.196;2024-03-06T06:26:34;5.22;;;4.50;;
635;SDS011;302;50.206;8.196;2024-03-06T06:29:19;5.95;;;5.15;;
635;SDS011;302;50.206;8.196;2024-03-06T06:32:02;6.35;;;5.10;;
635;SDS011;302;50.206;8.196;2024-03-06T06:34:46;6.55;;;5.15;;
635;SDS011;302;50.206;8.196;2024-03-06T06:37:30;8.00;;;5.60;;
635;SDS011;302;50.206;8.196;2024-03-06T06:40:14;6.63;;;5.65;;
635;SDS011;302;50.206;8.196;2024-03-06T06:42:58;6.20;;;5.30;;
635;SDS011;302;50.206;8.196;2024-03-06T06:45:42;6.95;;;5.32;;
635;SDS011;302;50.206;8.196;2024-03-06T06:48:26;6.45;;;4.78;;
635;SDS011;302;50.206;8.196;2024-03-06T06:51:11;7.30;;;5.70;;
635;SDS011;302;50.206;8.196;2024-03-06T06:53:55;6.85;;;5.25;;
635;SDS011;302;50.206;8.196;2024-03-06T06:56:38;7.38;;;5.00;;
635;SDS011;302;50.206;8.196;2024-03-06T06:59:22;6.72;;;5.55;;
635;SDS011;302;50.206;8.196;2024-03-06T07:02:06;7.15;;;5.03;;
635;SDS011;302;50.206;8.196;2024-03-06T07:04:51;6.07;;;5.38;;
635;SDS011;302;50.206;8.196;2024-03-06T07:07:35;8.93;;;6.22;;
635;SDS011;302;50.206;8.196;2024-03-06T07:10:19;6.97;;;5.95;;
635;SDS011;302;50.206;8.196;2024-03-06T07:13:03;6.93;;;6.22;;
635;SDS011;302;50.206;8.196;2024-03-06T07:15:48;6.20;;;5.20;;
635;SDS011;302;50.206;8.196;2024-03-06T07:18:32;5.90;;;5.20;;
635;SDS011;302;50.206;8.196;2024-03-06T07:21:16;5.95;;;5.32;;
635;SDS011;302;50.206;8.196;2024-03-06T07:24:01;7.07;;;5.22;;
635;SDS011;302;50.206;8.196;2024-03-06T07:26:45;7.72;;;5.60;;
635;SDS011;302;50.206;8.196;2024-03-06T07:29:29;6.57;;;5.40;;
635;SDS011;302;50.206;8.196;2024-03-06T07:32:13;6.95;;;6.18;;
635;SDS011;302;50.206;8.196;2024-03-06T07:34:57;7.55;;;5.90;;
635;SDS011;302;50.206;8.196;2024-03-06T07:37:42;7.28;;;5.47;;
635;SDS011;302;50.206;8.196;2024-03-06T07:40:28;6.57;;;5.80;;
635;SDS011;302;50.206;8.196;2024-03-06T07:43:12;7.70;;;5.97;;
635;SDS011;302;50.206;8.196;2024-03-06T07:45:57;7.90;;;6.10;;
635;SDS011;302;50.206;8.196;2024-03-06T07:48:44;7.90;;;6.95;;
635;SDS011;302;50.206;8.196;2024-03-06T07:51:27;7.85;;;6.65;;
635;SDS011;302;50.206;8.196;2024-03-06T07:54:11;11.35;;;9.40;;
635;SDS011;302;50.206;8.196;2024-03-06T07:56:55;23.45;;;19.75;;
635;SDS011;302;50.206;8.196;2024-03-06T07:59:39;28.52;;;20.98;;
635;SDS011;302;50.206;8.196;2024-03-06T08:02:23;26.02;;;17.67;;
635;SDS011;302;50.206;8.196;2024-03-06T08:05:07;22.38;;;17.17;;
635;SDS011;302;50.206;8.196;2024-03-06T08:07:53;17.83;;;14.55;;
635;SDS011;302;50.206;8.196;2024-03-06T08:10:37;15.70;;;11.38;;
635;SDS011;302;50.206;8.196;2024-03-06T08:13:21;18.70;;;11.10;;
635;SDS011;302;50.206;8.196;2024-03-06T08:16:06;16.85;;;9.70;;
635;SDS011;302;50.206;8.196;2024-03-06T08:18:49;18.75;;;9.60;;
635;SDS011;302;50.206;8.196;2024-03-06T08:21:33;12.00;;;8.48;;
635;SDS011;302;50.206;8.196;2024-03-06T08:24:17;11.90;;;7.63;;
635;SDS011;302;50.206;8.196;2024-03-06T08:27:01;14.13;;;8.05;;
635;SDS011;302;50.206;8.196;2024-03-06T08:29:46;14.77;;;9.15;;
635;SDS011;302;50.206;8.196;2024-03-06T08:32:32;15.82;;;9.15;;
635;SDS011;302;50.206;8.196;2024-03-06T08:35:19;12.77;;;9.60;;
635;SDS011;302;50.206;8.196;2024-03-06T08:38:04;14.23;;;9.73;;
635;SDS011;302;50.206;8.196;2024-03-06T08:40:49;13.52;;;9.00;;
635;SDS011;302;50.206;8.196;2024-03-06T08:43:33;15.40;;;10.70;;
635;SDS011;302;50.206;8.196;2024-03-06T08:46:18;14.13;;;10.15;;
635;SDS011;302;50.206;8.196;2024-03-06T08:49:01;15.52;;;11.65;;
635;SDS011;302;50.206;8.196;2024-03-06T08:51:45;15.48;;;10.45;;
635;SDS011;302;50.206;8.196;2024-03-06T08:54:29;12.80;;;10.93;;
635;SDS011;302;50.206;8.196;2024-03-06T08:57:14;16.42;;;10.50;;
635;SDS011;302;50.206;8.196;2024-03-06T08:59:59;14.80;;;12.10;;
635;SDS011;302;50.206;8.196;2024-03-06T09:02:43;15.18;;;11.27;;
635;SDS011;302;50.206;8.196;2024-03-06T09:05:27;18.45;;;13.32;;
635;SDS011;302;50.206;8.196;2024-03-06T09:08:11;16.88;;;12.68;;
635;SDS011;302;50.206;8.196;2024-03-06T09:10:56;17.35;;;11.63;;
635;SDS011;302;50.206;8.196;2024-03-06T09:13:42;16.88;;;12.15;;
635;SDS011;302;50.206;8.196;2024-03-06T09:16:26;18.35;;;12.60;;
635;SDS011;302;50.206;8.196;2024-03-06T09:19:10;16.00;;;10.30;;
635;SDS011;302;50.206;8.196;2024-03-06T09:21:54;18.52;;;12.80;;
635;SDS011;302;50.206;8.196;2024-03-06T09:24:38;18.65;;;13.45;;
635;SDS011;302;50.206;8.196;2024-03-06T09:27:27;19.70;;;14.40;;
635;SDS011;302;50.206;8.196;2024-03-06T09:30:11;20.23;;;13.27;;
635;SDS011;302;50.206;8.196;2024-03-06T09:32:57;18.65;;;13.70;;
635;SDS011;302;50.206;8.196;2024-03-06T09:35:41;17.10;;;13.50;;
635;SDS011;302;50.206;8.196;2024-03-06T09:38:28;20.15;;;14.98;;
635;SDS011;302;50.206;8.196;2024-03-06T09:41:13;21.00;;;14.85;;
635;SDS011;302;50.206;8.196;2024-03-06T09:43:57;20.05;;;14.35;;
635;SDS011;302;50.206;8.196;2024-03-06T09:46:42;17.27;;;13.98;;
635;SDS011;302;50.206;8.196;2024-03-06T09:49:25;19.25;;;14.15;;
635;SDS011;302;50.206;8.196;2024-03-06T09:52:09;23.25;;;15.38;;
635;SDS011;302;50.206;8.196;2024-03-06T09:54:54;17.42;;;13.20;;
635;SDS011;302;50.206;8.196;2024-03-06T09:57:39;16.15;;;12.48;;
635;SDS011;302;50.206;8.196;2024-03-06T10:00:23;19.67;;;12.85;;
635;SDS011;302;50.206;8.196;2024-03-06T10:03:08;16.52;;;12.65;;
635;SDS011;302;50.206;8.196;2024-03-06T10:05:52;18.20;;;14.02;;
635;SDS011;302;50.206;8.196;2024-03-06T10:08:36;17.10;;;13.57;;
635;SDS011;302;50.206;8.196;2024-03-06T10:11:25;16.38;;;11.90;;
635;SDS011;302;50.206;8.196;2024-03-06T10:14:09;16.35;;;12.40;;
635;SDS011;302;50.206;8.196;2024-03-06T10:16:57;17.02;;;12.90;;
635;SDS011;302;50.206;8.196;2024-03-06T10:19:41;17.05;;;13.13;;
635;SDS011;302;50.206;8.196;2024-03-06T10:22:29;17.50;;;13.18;;
635;SDS011;302;50.206;8.196;2024-03-06T10:25:13;18.33;;;13.68;;
635;SDS011;302;50.206;8.196;2024-03-06T10:30:47;14.27;;;11.88;;
635;SDS011;302;50.206;8.196;2024-03-06T10:33:31;16.13;;;10.88;;
635;SDS011;302;50.206;8.196;2024-03-06T10:36:15;15.32;;;10.93;;
635;SDS011;302;50.206;8.196;2024-03-06T10:38:59;12.35;;;10.82;;
635;SDS011;302;50.206;8.196;2024-03-06T10:41:44;15.55;;;12.25;;
635;SDS011;302;50.206;8.196;2024-03-06T10:44:29;12.07;;;10.45;;
635;SDS011;302;50.206;8.196;2024-03-06T10:47:13;12.38;;;9.90;;
635;SDS011;302;50.206;8.196;2024-03-06T10:49:59;13.55;;;11.25;;
635;SDS011;302;50.206;8.196;2024-03-06T10:52:44;13.48;;;10.80;;
635;SDS011;302;50.206;8.196;2024-03-06T10:55:28;13.55;;;10.10;;
635;SDS011;302;50.206;8.196;2024-03-06T10:58:13;12.82;;;10.52;;
635;SDS011;302;50.206;8.196;2024-03-06T11:00:57;13.38;;;10.32;;
635;SDS011;302;50.206;8.196;2024-03-06T11:03:41;12.38;;;10.07;;
635;SDS011;302;50.206;8.196;2024-03-06T11:06:26;13.52;;;10.48;;
635;SDS011;302;50.206;8.196;2024-03-06T11:09:10;12.65;;;10.30;;
635;SDS011;302;50.206;8.196;2024-03-06T11:11:59;12.80;;;10.80;;
635;SDS011;302;50.206;8.196;2024-03-06T11:14:43;13.45;;;10.52;;
635;SDS011;302;50.206;8.196;2024-03-06T11:17:27;11.23;;;9.23;;
635;SDS011;302;50.206;8.196;2024-03-06T11:20:18;14.00;;;10.02;;
635;SDS011;302;50.206;8.196;2024-03-06T11:23:02;12.23;;;9.77;;
635;SDS011;302;50.206;8.196;2024-03-06T11:28:37;12.38;;;9.98;;
635;SDS011;302;50.206;8.196;2024-03-06T11:31:22;11.93;;;10.15;;
635;SDS011;302;50.206;8.196;2024-03-06T11:34:10;11.27;;;9.43;;
635;SDS011;302;50.206;8.196;2024-03-06T11:36:56;14.43;;;11.35;;
635;SDS011;302;50.206;8.196;2024-03-06T11:39:40;15.02;;;11.55;;
635;SDS011;302;50.206;8.196;2024-03-06T11:42:34;14.75;;;12.02;;
635;SDS011;302;50.206;8.196;2024-03-06T11:45:22;13.82;;;11.30;;
635;SDS011;302;50.206;8.196;2024-03-06T11:48:08;13.23;;;11.27;;
635;SDS011;302;50.206;8.196;2024-03-06T11:50:58;15.05;;;11.55;;
635;SDS011;302;50.206;8.196;2024-03-06T11:53:42;17.98;;;11.43;;
635;SDS011;302;50.206;8.196;2024-03-06T11:56:28;13.30;;;11.23;;
635;SDS011;302;50.206;8.196;2024-03-06T11:59:12;13.32;;;10.73;;
635;SDS011;302;50.206;8.196;2024-03-06T12:01:56;13.77;;;11.77;;
635;SDS011;302;50.206;8.196;2024-03-06T12:04:41;13.23;;;11.13;;
635;SDS011;302;50.206;8.196;2024-03-06T12:07:25;13.18;;;10.82;;
635;SDS011;302;50.206;8.196;2024-03-06T12:10:08;11.13;;;9.77;;
635;SDS011;302;50.206;8.196;2024-03-06T12:12:52;12.40;;;10.15;;
635;SDS011;302;50.206;8.196;2024-03-06T12:15:36;11.38;;;9.45;;
635;SDS011;302;50.206;8.196;2024-03-06T12:18:20;12.18;;;9.18;;
635;SDS011;302;50.206;8.196;2024-03-06T12:21:04;13.48;;;11.32;;
635;SDS011;302;50.206;8.196;2024-03-06T12:23:48;13.40;;;9.85;;
635;SDS011;302;50.206;8.196;2024-03-06T12:26:32;12.23;;;10.13;;
635;SDS011;302;50.206;8.196;2024-03-06T12:29:17;11.65;;;9.75;;
635;SDS011;302;50.206;8.196;2024-03-06T12:32:01;12.30;;;9.70;;
635;SDS011;302;50.206;8.196;2024-03-06T12:34:55;10.75;;;9.48;;
635;SDS011;302;50.206;8.196;2024-03-06T12:37:39;10.27;;;8.95;;
635;SDS011;302;50.206;8.196;2024-03-06T12:40:23;9.77;;;8.43;;
635;SDS011;302;50.206;8.196;2024-03-06T12:43:07;10.55;;;8.90;;
635;SDS011;302;50.206;8.196;2024-03-06T12:45:52;12.88;;;9.25;;
635;SDS011;302;50.206;8.196;2024-03-06T12:48:38;11.23;;;8.98;;
635;SDS011;302;50.206;8.196;2024-03-06T12:51:22;12.02;;;10.60;;
635;SDS011;302;50.206;8.196;2024-03-06T12:54:06;11.35;;;9.85;;
635;SDS011;302;50.206;8.196;2024-03-06T12:56:52;13.50;;;10.88;;
635;SDS011;302;50.206;8.196;2024-03-06T12:59:36;11.57;;;10.02;;
635;SDS011;302;50.206;8.196;2024-03-06T13:02:19;10.57;;;9.13;;
635;SDS011;302;50.206;8.196;2024-03-06T13:05:04;11.80;;;10.27;;
635;SDS011;302;50.206;8.196;2024-03-06T13:07:47;11.20;;;9.30;;
635;SDS011;302;50.206;8.196;2024-03-06T13:10:32;10.02;;;8.40;;
635;SDS011;302;50.206;8.196;2024-03-06T13:13:15;11.93;;;9.77;;
635;SDS011;302;50.206;8.196;2024-03-06T13:15:59;13.95;;;10.55;;
635;SDS011;302;50.206;8.196;2024-03-06T13:18:43;11.88;;;9.95;;
635;SDS011;302;50.206;8.196;2024-03-06T13:21:27;11.63;;;9.40;;
635;SDS011;302;50.206;8.196;2024-03-06T13:24:11;13.23;;;11.60;;
635;SDS011;302;50.206;8.196;2024-03-06T13:26:55;13.25;;;10.43;;
635;SDS011;302;50.206;8.196;2024-03-06T13:29:39;12.98;;;9.90;;
635;SDS011;302;50.206;8.196;2024-03-06T13:32:23;12.70;;;10.60;;
635;SDS011;302;50.206;8.196;2024-03-06T13:35:07;13.55;;;11.05;;
635;SDS011;302;50.206;8.196;2024-03-06T13:37:55;14.30;;;11.15;;
635;SDS011;302;50.206;8.196;2024-03-06T13:40:39;14.98;;;11.18;;
635;SDS011;302;50.206;8.196;2024-03-06T13:43:23;12.00;;;10.40;;
635;SDS011;302;50.206;8.196;2024-03-06T13:46:07;12.10;;;10.20;;
635;SDS011;302;50.206;8.196;2024-03-06T13:48:51;13.00;;;11.57;;
635;SDS011;302;50.206;8.196;2024-03-06T13:51:35;10.80;;;9.70;;
635;SDS011;302;50.206;8.196;2024-03-06T13:54:19;12.25;;;10.95;;
635;SDS011;302;50.206;8.196;2024-03-06T13:57:03;12.38;;;10.60;;
635;SDS011;302;50.206;8.196;2024-03-06T13:59:47;12.35;;;10.55;;
635;SDS011;302;50.206;8.196;2024-03-06T14:02:32;11.52;;;9.88;;
635;SDS011;302;50.206;8.196;2024-03-06T14:05:16;10.27;;;8.27;;
635;SDS011;302;50.206;8.196;2024-03-06T14:07:59;8.88;;;7.47;;
635;SDS011;302;50.206;8.196;2024-03-06T14:10:43;12.32;;;8.23;;
635;SDS011;302;50.206;8.196;2024-03-06T14:13:29;11.50;;;8.23;;
635;SDS011;302;50.206;8.196;2024-03-06T14:16:13;9.57;;;7.30;;
635;SDS011;302;50.206;8.196;2024-03-06T14:18:57;9.00;;;7.32;;
635;SDS011;302;50.206;8.196;2024-03-06T14:21:41;9.07;;;7.80;;
635;SDS011;302;50.206;8.196;2024-03-06T14:24:24;11.20;;;7.85;;
635;SDS011;302;50.206;8.196;2024-03-06T14:27:08;10.68;;;8.30;;
635;SDS011;302;50.206;8.196;2024-03-06T14:29:52;15.60;;;11.48;;
635;SDS011;302;50.206;8.196;2024-03-06T14:32:37;9.60;;;7.60;;
635;SDS011;302;50.206;8.196;2024-03-06T14:35:22;10.20;;;8.43;;
635;SDS011;302;50.206;8.196;2024-03-06T14:38:06;8.57;;;7.75;;
635;SDS011;302;50.206;8.196;2024-03-06T14:40:50;9.73;;;8.00;;
635;SDS011;302;50.206;8.196;2024-03-06T14:43:34;8.90;;;7.93;;
635;SDS011;302;50.206;8.196;2024-03-06T14:46:19;8.80;;;7.00;;
635;SDS011;302;50.206;8.196;2024-03-06T14:49:03;8.90;;;8.00;;
635;SDS011;302;50.206;8.196;2024-03-06T14:51:48;10.20;;;7.90;;
635;SDS011;302;50.206;8.196;2024-03-06T14:54:32;9.25;;;7.70;;
635;SDS011;302;50.206;8.196;2024-03-06T14:57:16;9.48;;;8.10;;
635;SDS011;302;50.206;8.196;2024-03-06T15:00:00;9.93;;;8.75;;
635;SDS011;302;50.206;8.196;2024-03-06T15:02:44;8.93;;;8.00;;
635;SDS011;302;50.206;8.196;2024-03-06T15:05:29;9.57;;;8.10;;
635;SDS011;302;50.206;8.196;2024-03-06T15:08:15;9.07;;;8.18;;
635;SDS011;302;50.206;8.196;2024-03-06T15:10:59;9.25;;;7.78;;
635;SDS011;302;50.206;8.196;2024-03-06T15:13:43;8.02;;;7.22;;
635;SDS011;302;50.206;8.196;2024-03-06T15:16:27;9.10;;;8.20;;
635;SDS011;302;50.206;8.196;2024-03-06T15:19:11;9.50;;;8.35;;
635;SDS011;302;50.206;8.196;2024-03-06T15:21:55;8.95;;;8.05;;
635;SDS011;302;50.206;8.196;2024-03-06T15:24:41;9.40;;;8.43;;
635;SDS011;302;50.206;8.196;2024-03-06T15:27:28;7.78;;;6.97;;
635;SDS011;302;50.206;8.196;2024-03-06T15:30:12;9.93;;;7.80;;
635;SDS011;302;50.206;8.196;2024-03-06T15:32:58;10.38;;;8.20;;
635;SDS011;302;50.206;8.196;2024-03-06T15:35:41;8.45;;;7.60;;
635;SDS011;302;50.206;8.196;2024-03-06T15:38:26;8.70;;;7.80;;
635;SDS011;302;50.206;8.196;2024-03-06T15:41:10;9.02;;;8.13;;
635;SDS011;302;50.206;8.196;2024-03-06T15:43:54;9.57;;;8.38;;
635;SDS011;302;50.206;8.196;2024-03-06T15:46:38;8.45;;;6.80;;
635;SDS011;302;50.206;8.196;2024-03-06T15:49:22;8.77;;;7.95;;
635;SDS011;302;50.206;8.196;2024-03-06T15:52:10;8.63;;;7.72;;
635;SDS011;302;50.206;8.196;2024-03-06T15:54:54;8.55;;;7.40;;
635;SDS011;302;50.206;8.196;2024-03-06T15:57:38;9.30;;;8.20;;
635;SDS011;302;50.206;8.196;2024-03-06T16:00:22;9.25;;;7.82;;
635;SDS011;302;50.206;8.196;2024-03-06T16:03:06;8.85;;;7.57;;
635;SDS011;302;50.206;8.196;2024-03-06T16:05:50;8.07;;;7.10;;
635;SDS011;302;50.206;8.196;2024-03-06T16:08:36;8.80;;;7.43;;
635;SDS011;302;50.206;8.196;2024-03-06T16:11:20;8.35;;;7.53;;
635;SDS011;302;50.206;8.196;2024-03-06T16:14:04;8.70;;;7.80;;
635;SDS011;302;50.206;8.196;2024-03-06T16:16:48;9.23;;;7.53;;
635;SDS011;302;50.206;8.196;2024-03-06T16:19:35;7.70;;;6.90;;
635;SDS011;302;50.206;8.196;2024-03-06T16:22:19;9.23;;;7.18;;
635;SDS011;302;50.206;8.196;2024-03-06T16:25:03;8.98;;;7.07;;
635;SDS011;302;50.206;8.196;2024-03-06T16:27:48;9.07;;;7.50;;
635;SDS011;302;50.206;8.196;2024-03-06T16:30:32;8.48;;;7.30;;
635;SDS011;302;50.206;8.196;2024-03-06T16:33:16;7.40;;;6.60;;
635;SDS011;302;50.206;8.196;2024-03-06T16:36:00;8.55;;;7.05;;
635;SDS011;302;50.206;8.196;2024-03-06T16:38:44;8.05;;;6.72;;
635;SDS011;302;50.206;8.196;2024-03-06T16:41:28;10.80;;;9.05;;
635;SDS011;302;50.206;8.196;2024-03-06T16:44:13;8.05;;;6.72;;
635;SDS011;302;50.206;8.196;2024-03-06T16:46:57;9.98;;;7.88;;
635;SDS011;302;50.206;8.196;2024-03-06T16:49:40;10.30;;;8.07;;
635;SDS011;302;50.206;8.196;2024-03-06T16:52:24;11.75;;;8.90;;
635;SDS011;302;50.206;8.196;2024-03-06T16:55:08;11.10;;;8.65;;
635;SDS011;302;50.206;8.196;2024-03-06T16:57:52;11.70;;;8.70;;
635;SDS011;302;50.206;8.196;2024-03-06T17:00:36;10.73;;;7.72;;
635;SDS011;302;50.206;8.196;2024-03-06T17:03:20;9.70;;;8.00;;
635;SDS011;302;50.206;8.196;2024-03-06T17:06:04;10.90;;;8.80;;
635;SDS011;302;50.206;8.196;2024-03-06T17:08:48;10.63;;;7.75;;
635;SDS011;302;50.206;8.196;2024-03-06T17:11:32;10.18;;;7.80;;
635;SDS011;302;50.206;8.196;2024-03-06T17:14:16;12.45;;;8.73;;
635;SDS011;302;50.206;8.196;2024-03-06T17:17:00;11.45;;;8.57;;
635;SDS011;302;50.206;8.196;2024-03-06T17:19:44;11.23;;;8.25;;
635;SDS011;302;50.206;8.196;2024-03-06T17:22:29;10.52;;;8.77;;
635;SDS011;302;50.206;8.196;2024-03-06T17:25:13;11.93;;;9.70;;
635;SDS011;302;50.206;8.196;2024-03-06T17:27:57;13.05;;;8.95;;